createdAt,value
2018-05-23T00:01:02.928Z,5.10
2018-05-23T00:03:30.439Z,5.40
2018-05-23T00:05:57.959Z,5.20
2018-05-23T00:08:25.488Z,4.80
2018-05-23T00:10:52.999Z,5.37
2018-05-23T00:13:20.512Z,5.35
2018-05-23T00:15:48.802Z,5.10
2018-05-23T00:18:16.324Z,5.28
2018-05-23T00:20:43.844Z,5.53
2018-05-23T00:23:11.364Z,5.45
2018-05-23T00:25:38.878Z,5.20
2018-05-23T00:28:06.391Z,5.40
2018-05-23T00:30:33.916Z,5.82
2018-05-23T00:33:01.435Z,6.05
2018-05-23T00:35:28.951Z,5.60
2018-05-23T00:37:56.464Z,5.50
2018-05-23T00:40:23.984Z,6.03
2018-05-23T00:42:51.495Z,6.00
2018-05-23T00:45:19.009Z,6.18
2018-05-23T00:47:46.524Z,6.10
2018-05-23T00:50:14.102Z,6.40
2018-05-23T00:52:41.599Z,6.35
2018-05-23T00:55:21.012Z,5.95
2018-05-23T00:57:48.539Z,6.12
2018-05-23T01:00:16.055Z,6.62
2018-05-23T01:02:44.339Z,5.72
2018-05-23T01:05:11.976Z,5.65
2018-05-23T01:07:39.503Z,6.60
2018-05-23T01:10:07.020Z,7.03
2018-05-23T01:12:35.305Z,6.55
2018-05-23T01:15:02.828Z,6.57
2018-05-23T01:17:30.347Z,7.07
2018-05-23T01:19:57.860Z,6.78
2018-05-23T01:22:25.371Z,6.62
2018-05-23T01:24:52.886Z,6.80
2018-05-23T01:27:20.409Z,6.80
2018-05-23T01:29:47.931Z,6.70
2018-05-23T01:32:15.451Z,6.80
2018-05-23T01:34:42.988Z,6.85
2018-05-23T01:37:10.495Z,7.25
2018-05-23T01:39:38.787Z,6.70
2018-05-23T01:42:06.306Z,7.45
2018-05-23T01:44:33.823Z,6.75
2018-05-23T01:47:01.342Z,7.10
2018-05-23T01:49:29.624Z,6.22
2018-05-23T01:51:57.150Z,7.07
2018-05-23T01:54:24.675Z,7.60
2018-05-23T01:56:52.204Z,7.03
2018-05-23T01:59:20.479Z,6.95
2018-05-23T02:01:47.996Z,7.37
2018-05-23T02:04:15.512Z,7.37
2018-05-23T02:06:43.014Z,7.18
2018-05-23T02:09:10.536Z,7.20
2018-05-23T02:11:38.060Z,7.22
2018-05-23T02:14:05.583Z,7.25
2018-05-23T02:16:33.098Z,7.78
2018-05-23T02:19:00.613Z,8.15
2018-05-23T02:21:28.123Z,7.53
2018-05-23T02:23:55.655Z,7.65
2018-05-23T02:26:23.221Z,8.18
2018-05-23T02:28:50.747Z,7.47
2018-05-23T02:31:18.263Z,7.75
2018-05-23T02:33:45.780Z,7.95
2018-05-23T02:36:13.347Z,7.82
2018-05-23T02:38:40.876Z,8.30
2018-05-23T02:41:08.392Z,7.90
2018-05-23T02:43:35.908Z,8.23
2018-05-23T02:46:03.424Z,8.65
2018-05-23T02:48:31.725Z,8.70
2018-05-23T02:50:59.260Z,8.52
2018-05-23T02:53:27.571Z,8.30
2018-05-23T02:55:55.095Z,9.05
2018-05-23T02:58:22.631Z,9.05
2018-05-23T03:00:50.152Z,9.20
2018-05-23T03:03:17.686Z,9.38
2018-05-23T03:05:45.208Z,8.82
2018-05-23T03:08:12.727Z,9.13
2018-05-23T03:10:40.235Z,8.75
2018-05-23T03:13:07.767Z,8.43
2018-05-23T03:15:35.275Z,8.75
2018-05-23T03:18:02.800Z,9.30
2018-05-23T03:20:30.313Z,9.38
2018-05-23T03:22:57.836Z,9.45
2018-05-23T03:25:25.359Z,9.82
2018-05-23T03:27:52.893Z,10.43
2018-05-23T03:30:20.415Z,10.13
2018-05-23T03:32:47.931Z,8.98
2018-05-23T03:35:15.447Z,10.63
2018-05-23T03:37:42.967Z,10.27
2018-05-23T03:40:10.530Z,10.68
2018-05-23T03:42:38.435Z,10.95
2018-05-23T03:45:05.960Z,10.85
2018-05-23T03:47:33.479Z,10.80
2018-05-23T03:50:01.007Z,10.52
2018-05-23T03:52:28.527Z,10.98
2018-05-23T03:54:56.337Z,10.20
2018-05-23T03:57:24.624Z,10.63
2018-05-23T04:00:03.872Z,10.27
2018-05-23T04:02:43.687Z,10.43
2018-05-23T04:05:23.825Z,10.55
2018-05-23T04:07:51.347Z,10.30
2018-05-23T04:10:18.868Z,10.63
2018-05-23T04:12:46.499Z,10.82
2018-05-23T04:15:14.018Z,11.52
2018-05-23T04:17:41.543Z,10.98
2018-05-23T04:20:09.068Z,11.57
2018-05-23T04:22:36.599Z,11.02
2018-05-23T04:25:04.143Z,11.43
2018-05-23T04:27:31.669Z,11.15
2018-05-23T04:29:59.196Z,10.10
2018-05-23T04:32:26.719Z,10.80
2018-05-23T04:34:54.236Z,10.73
2018-05-23T04:37:21.750Z,10.77
2018-05-23T04:39:49.285Z,11.27
2018-05-23T04:42:16.838Z,10.77
2018-05-23T04:44:44.353Z,10.38
2018-05-23T04:47:11.866Z,11.32
2018-05-23T04:49:39.396Z,10.40
2018-05-23T04:52:07.299Z,10.55
2018-05-23T04:54:34.820Z,10.13
2018-05-23T04:57:02.386Z,10.35
2018-05-23T04:59:29.883Z,10.63
2018-05-23T05:01:57.405Z,10.05
2018-05-23T05:04:24.932Z,10.63
2018-05-23T05:06:52.452Z,10.55
2018-05-23T05:09:19.987Z,11.38
2018-05-23T05:11:47.503Z,10.90
2018-05-23T05:14:15.052Z,11.40
2018-05-23T05:16:43.339Z,10.90
2018-05-23T05:19:10.871Z,10.20
2018-05-23T05:21:38.397Z,11.32
2018-05-23T05:24:05.915Z,10.43
2018-05-23T05:26:33.482Z,10.93
2018-05-23T05:29:01.004Z,11.07
2018-05-23T05:31:28.523Z,10.38
2018-05-23T05:33:56.045Z,10.60
2018-05-23T05:36:23.908Z,11.20
2018-05-23T05:38:51.533Z,10.68
2018-05-23T05:41:18.972Z,11.18
2018-05-23T05:43:46.492Z,10.68
2018-05-23T05:46:14.788Z,10.57
2018-05-23T05:48:42.313Z,11.27
2018-05-23T05:51:09.838Z,11.05
2018-05-23T05:53:37.408Z,10.88
2018-05-23T05:56:04.907Z,11.00
2018-05-23T05:58:32.428Z,11.63
2018-05-23T06:00:59.960Z,11.25
2018-05-23T06:03:27.484Z,11.45
2018-05-23T06:05:55.036Z,11.90
2018-05-23T06:08:22.617Z,11.20
2018-05-23T06:10:50.910Z,11.63
2018-05-23T06:13:18.439Z,11.18
2018-05-23T06:15:45.996Z,10.38
2018-05-23T06:18:13.516Z,10.43
2018-05-23T06:20:41.031Z,10.32
2018-05-23T06:23:09.320Z,9.80
2018-05-23T06:25:36.851Z,10.10
2018-05-23T06:28:04.380Z,9.73
2018-05-23T06:30:31.896Z,9.52
2018-05-23T06:33:00.191Z,10.52
2018-05-23T06:35:27.711Z,9.60
2018-05-23T06:37:55.310Z,10.45
2018-05-23T06:40:22.777Z,9.55
2018-05-23T06:42:50.299Z,9.40
2018-05-23T06:45:18.580Z,9.32
2018-05-23T06:47:46.868Z,8.82
2018-05-23T06:50:14.382Z,9.15
2018-05-23T06:52:41.896Z,8.88
2018-05-23T06:55:09.424Z,9.38
2018-05-23T06:57:36.952Z,9.02
2018-05-23T07:00:04.478Z,9.45
2018-05-23T07:02:32.009Z,9.45
2018-05-23T07:04:59.530Z,8.70
2018-05-23T07:07:27.052Z,9.05
2018-05-23T07:09:54.573Z,9.10
2018-05-23T07:12:22.105Z,9.07
2018-05-23T07:14:49.619Z,8.85
2018-05-23T07:17:17.912Z,8.95
2018-05-23T07:19:45.452Z,8.05
2018-05-23T07:22:12.991Z,8.75
2018-05-23T07:24:40.526Z,8.13
2018-05-23T07:27:08.096Z,8.57
2018-05-23T07:29:35.632Z,7.85
2018-05-23T07:32:03.163Z,7.97
2018-05-23T07:34:30.682Z,7.53
2018-05-23T07:36:58.257Z,9.48
2018-05-23T07:39:25.791Z,7.55
2018-05-23T07:41:53.316Z,7.22
2018-05-23T07:44:20.868Z,7.62
2018-05-23T07:46:48.386Z,7.45
2018-05-23T07:49:15.899Z,8.65
2018-05-23T07:51:43.478Z,7.57
2018-05-23T07:54:10.991Z,7.07
2018-05-23T07:56:39.290Z,7.00
2018-05-23T07:59:06.822Z,6.97
2018-05-23T08:01:34.339Z,6.90
2018-05-23T08:04:01.851Z,6.93
2018-05-23T08:06:30.126Z,6.72
2018-05-23T08:08:57.640Z,6.80
2018-05-23T08:11:25.152Z,6.50
2018-05-23T08:13:53.120Z,6.20
2018-05-23T08:16:20.644Z,6.28
2018-05-23T08:18:48.155Z,6.07
2018-05-23T08:21:16.711Z,6.32
2018-05-23T08:23:44.244Z,6.40
2018-05-23T08:26:12.534Z,6.82
2018-05-23T08:28:40.161Z,6.50
2018-05-23T08:31:07.700Z,6.32
2018-05-23T08:33:35.219Z,6.30
2018-05-23T08:36:02.788Z,6.35
2018-05-23T08:38:30.304Z,6.30
2018-05-23T08:40:57.844Z,6.45
2018-05-23T08:43:25.375Z,5.90
2018-05-23T08:45:53.670Z,5.65
2018-05-23T08:48:21.199Z,5.60
2018-05-23T08:50:48.720Z,5.50
2018-05-23T08:53:16.243Z,5.90
2018-05-23T08:55:44.520Z,5.68
2018-05-23T08:58:12.047Z,5.20
2018-05-23T09:00:39.575Z,5.50
2018-05-23T09:03:07.099Z,5.22
2018-05-23T09:05:35.392Z,5.07
2018-05-23T09:08:02.913Z,5.03
2018-05-23T09:10:30.431Z,5.30
2018-05-23T09:12:57.968Z,5.10
2018-05-23T09:15:25.489Z,4.93
2018-05-23T09:17:53.008Z,5.35
2018-05-23T09:20:20.532Z,4.60
2018-05-23T09:22:48.043Z,4.53
2018-05-23T09:25:15.572Z,4.43
2018-05-23T09:27:43.096Z,5.07
2018-05-23T09:30:10.605Z,5.10
2018-05-23T09:32:38.125Z,5.30
2018-05-23T09:35:06.414Z,4.85
2018-05-23T09:37:33.938Z,5.15
2018-05-23T09:40:01.466Z,5.40
2018-05-23T09:42:28.980Z,5.70
2018-05-23T09:44:56.491Z,5.47
2018-05-23T09:47:24.007Z,5.47
2018-05-23T09:49:51.520Z,5.53
2018-05-23T09:52:19.040Z,5.20
2018-05-23T09:54:46.553Z,5.18
2018-05-23T09:57:14.079Z,5.03
2018-05-23T09:59:41.597Z,4.93
2018-05-23T10:02:09.878Z,5.00
2018-05-23T10:04:37.404Z,4.20
2018-05-23T10:07:04.919Z,4.62
2018-05-23T10:09:33.121Z,4.65
2018-05-23T10:12:00.839Z,4.68
2018-05-23T10:14:28.371Z,4.20
2018-05-23T10:16:55.884Z,5.00
2018-05-23T10:19:23.407Z,4.62
2018-05-23T10:21:50.939Z,4.60
2018-05-23T10:24:18.460Z,4.80
2018-05-23T10:26:45.989Z,5.25
2018-05-23T10:29:13.506Z,4.85
2018-05-23T10:31:41.023Z,4.40
2018-05-23T10:34:08.568Z,4.55
2018-05-23T10:36:36.092Z,4.70
2018-05-23T10:39:03.680Z,4.90
2018-05-23T10:41:31.163Z,5.20
2018-05-23T10:43:58.695Z,6.10
2018-05-23T10:46:26.229Z,4.80
2018-05-23T10:48:53.744Z,4.95
2018-05-23T10:51:21.267Z,12.50
2018-05-23T10:53:48.814Z,16.45
2018-05-23T10:56:16.330Z,11.12
2018-05-23T10:58:44.668Z,5.50
2018-05-23T11:01:12.185Z,5.50
2018-05-23T11:03:39.728Z,6.43
2018-05-23T11:06:07.240Z,5.00
2018-05-23T11:08:34.764Z,6.45
2018-05-23T11:11:02.295Z,4.82
2018-05-23T11:13:29.807Z,4.87
2018-05-23T11:15:57.320Z,5.25
2018-05-23T11:18:24.840Z,5.22
2018-05-23T11:20:52.353Z,5.20
2018-05-23T11:23:19.872Z,5.07
2018-05-23T11:25:47.394Z,5.07
2018-05-23T11:28:14.908Z,5.00
2018-05-23T11:30:42.420Z,5.03
2018-05-23T11:33:09.944Z,5.37
2018-05-23T11:35:37.468Z,5.93
2018-05-23T11:38:04.989Z,7.87
2018-05-23T11:40:32.516Z,5.90
2018-05-23T11:43:00.811Z,6.40
2018-05-23T11:45:28.336Z,6.12
2018-05-23T11:47:55.847Z,5.97
2018-05-23T11:50:23.378Z,6.00
2018-05-23T11:52:51.659Z,5.40
2018-05-23T11:55:19.176Z,5.07
2018-05-23T11:57:46.700Z,5.55
2018-05-23T12:00:14.222Z,5.47
2018-05-23T12:02:42.512Z,5.45
2018-05-23T12:05:10.027Z,5.40
2018-05-23T12:07:37.559Z,5.47
2018-05-23T12:10:06.116Z,5.55
2018-05-23T12:12:34.399Z,5.30
2018-05-23T12:15:01.924Z,5.20
2018-05-23T12:17:29.454Z,4.80
2018-05-23T12:19:56.976Z,4.55
2018-05-23T12:22:25.265Z,5.07
2018-05-23T12:24:52.778Z,5.07
2018-05-23T12:27:20.297Z,6.32
2018-05-23T12:29:47.815Z,19.40
2018-05-23T12:32:16.102Z,6.37
2018-05-23T12:34:43.630Z,6.10
2018-05-23T12:37:11.166Z,7.45
2018-05-23T12:39:38.683Z,10.15
2018-05-23T12:42:06.975Z,7.62
2018-05-23T12:44:34.499Z,8.25
2018-05-23T12:47:02.027Z,5.28
2018-05-23T12:49:29.544Z,4.70
2018-05-23T12:51:57.823Z,4.70
2018-05-23T12:54:25.339Z,4.37
2018-05-23T12:56:52.863Z,4.47
2018-05-23T12:59:20.380Z,4.12
2018-05-23T13:01:47.909Z,4.05
2018-05-23T13:04:15.427Z,4.65
2018-05-23T13:06:43.718Z,8.65
2018-05-23T13:09:11.383Z,4.60
2018-05-23T13:11:38.915Z,4.20
2018-05-23T13:14:06.434Z,4.10
2018-05-23T13:16:33.947Z,3.87
2018-05-23T13:19:01.472Z,3.90
2018-05-23T13:21:28.992Z,4.60
2018-05-23T13:23:56.525Z,4.12
2018-05-23T13:26:24.054Z,3.45
2018-05-23T13:28:51.568Z,4.47
2018-05-23T13:31:19.084Z,3.83
2018-05-23T13:33:46.608Z,4.00
2018-05-23T13:36:14.128Z,4.90
2018-05-23T13:38:41.656Z,3.90
2018-05-23T13:41:09.173Z,4.00
2018-05-23T13:43:36.691Z,3.90
2018-05-23T13:46:04.972Z,3.45
2018-05-23T13:48:32.488Z,3.45
2018-05-23T13:51:00.001Z,3.83
2018-05-23T13:53:27.511Z,3.65
2018-05-23T13:55:55.036Z,4.35
2018-05-23T13:58:22.553Z,4.15
2018-05-23T14:00:50.079Z,5.78
2018-05-23T14:03:17.602Z,3.53
2018-05-23T14:05:45.115Z,3.60
2018-05-23T14:08:12.638Z,3.67
2018-05-23T14:10:40.160Z,3.70
2018-05-23T14:13:07.680Z,3.00
2018-05-23T14:15:35.191Z,3.42
2018-05-23T14:18:03.464Z,3.10
2018-05-23T14:20:30.987Z,3.75
2018-05-23T14:22:58.516Z,3.20
2018-05-23T14:25:26.026Z,3.20
2018-05-23T14:27:53.544Z,3.53
2018-05-23T14:30:21.056Z,3.20
2018-05-23T14:32:48.579Z,3.45
2018-05-23T14:35:16.088Z,3.20
2018-05-23T14:37:44.408Z,3.92
2018-05-23T14:40:11.920Z,3.25
2018-05-23T14:42:39.446Z,3.67
2018-05-23T14:45:06.963Z,3.40
2018-05-23T14:47:35.252Z,3.40
2018-05-23T14:50:02.787Z,3.53
2018-05-23T14:52:31.068Z,3.20
2018-05-23T14:54:58.587Z,3.22
2018-05-23T14:57:26.112Z,4.03
2018-05-23T14:59:53.623Z,3.10
2018-05-23T15:02:21.158Z,3.40
2018-05-23T15:04:48.678Z,3.47
2018-05-23T15:07:16.518Z,3.58
2018-05-23T15:09:44.032Z,3.28
2018-05-23T15:12:12.319Z,3.50
2018-05-23T15:14:39.840Z,3.30
2018-05-23T15:17:07.360Z,3.10
2018-05-23T15:19:34.873Z,3.22
2018-05-23T15:22:02.396Z,3.42
2018-05-23T15:24:29.911Z,3.28
2018-05-23T15:26:57.428Z,3.00
2018-05-23T15:29:24.939Z,3.30
2018-05-23T15:31:52.456Z,3.37
2018-05-23T15:34:19.976Z,3.33
2018-05-23T15:36:47.501Z,3.05
2018-05-23T15:39:15.032Z,3.30
2018-05-23T15:41:42.580Z,3.30
2018-05-23T15:44:10.097Z,2.87
2018-05-23T15:46:37.643Z,3.03
2018-05-23T15:49:05.156Z,3.17
2018-05-23T15:51:32.675Z,3.35
2018-05-23T15:54:00.197Z,3.28
2018-05-23T15:56:27.716Z,3.50
2018-05-23T15:58:55.240Z,2.80
2018-05-23T16:01:22.771Z,3.12
2018-05-23T16:03:50.293Z,3.05
2018-05-23T16:06:17.817Z,3.12
2018-05-23T16:08:45.355Z,3.70
2018-05-23T16:11:12.878Z,2.97
2018-05-23T16:13:40.433Z,2.92
2018-05-23T16:16:08.015Z,3.40
2018-05-23T16:18:36.297Z,3.45
2018-05-23T16:21:04.575Z,3.37
2018-05-23T16:23:32.091Z,3.28
2018-05-23T16:25:59.604Z,3.30
2018-05-23T16:28:27.142Z,3.25
2018-05-23T16:30:55.428Z,3.40
2018-05-23T16:33:22.963Z,3.05
2018-05-23T16:35:50.490Z,3.40
2018-05-23T16:38:18.127Z,3.45
2018-05-23T16:40:45.662Z,3.50
2018-05-23T16:43:14.015Z,3.87
2018-05-23T16:45:41.539Z,3.58
2018-05-23T16:48:09.062Z,3.67
2018-05-23T16:50:37.356Z,3.33
2018-05-23T16:53:05.639Z,3.30
2018-05-23T16:55:33.147Z,2.97
2018-05-23T16:58:00.667Z,3.40
2018-05-23T17:00:28.191Z,3.20
2018-05-23T17:02:55.782Z,3.75
2018-05-23T17:05:23.245Z,3.25
2018-05-23T17:07:50.772Z,3.55
2018-05-23T17:10:18.283Z,3.45
2018-05-23T17:12:45.797Z,3.05
2018-05-23T17:15:13.315Z,3.10
2018-05-23T17:17:40.907Z,3.15
2018-05-23T17:20:08.425Z,3.10
2018-05-23T17:22:35.963Z,3.10
2018-05-23T17:25:03.509Z,3.28
2018-05-23T17:27:31.130Z,3.15
2018-05-23T17:29:58.564Z,2.70
2018-05-23T17:32:26.073Z,3.30
2018-05-23T17:34:54.189Z,3.40
2018-05-23T17:37:21.705Z,3.15
2018-05-23T17:39:49.231Z,3.37
2018-05-23T17:42:16.743Z,3.22
2018-05-23T17:44:44.263Z,3.00
2018-05-23T17:47:11.823Z,3.33
2018-05-23T17:49:39.340Z,3.30
2018-05-23T17:52:06.865Z,3.53
2018-05-23T17:54:34.404Z,3.22
2018-05-23T17:57:01.939Z,3.25
2018-05-23T17:59:30.227Z,3.12
2018-05-23T18:01:57.772Z,3.10
2018-05-23T18:04:25.285Z,3.70
2018-05-23T18:06:53.576Z,3.20
2018-05-23T18:09:21.105Z,3.25
2018-05-23T18:11:48.631Z,3.30
2018-05-23T18:14:16.200Z,3.15
2018-05-23T18:16:43.770Z,3.40
2018-05-23T18:19:11.269Z,3.33
2018-05-23T18:21:38.792Z,3.20
2018-05-23T18:24:06.311Z,3.33
2018-05-23T18:26:33.848Z,3.12
2018-05-23T18:29:02.128Z,3.60
2018-05-23T18:31:29.650Z,3.17
2018-05-23T18:33:57.164Z,3.15
2018-05-23T18:36:24.923Z,2.85
2018-05-23T18:38:52.500Z,3.03
2018-05-23T18:41:20.016Z,2.97
2018-05-23T18:43:47.541Z,2.95
2018-05-23T18:46:15.055Z,2.83
2018-05-23T18:48:43.344Z,3.22
2018-05-23T18:51:10.901Z,3.20
2018-05-23T18:53:38.488Z,3.12
2018-05-23T18:56:06.749Z,3.22
2018-05-23T18:58:34.273Z,2.95
2018-05-23T19:01:01.803Z,3.15
2018-05-23T19:03:29.326Z,3.28
2018-05-23T19:05:56.852Z,3.60
2018-05-23T19:08:24.386Z,3.00
2018-05-23T19:10:51.905Z,3.10
2018-05-23T19:13:19.432Z,3.78
2018-05-23T19:15:47.040Z,3.33
2018-05-23T19:18:14.512Z,3.28
2018-05-23T19:20:42.027Z,3.30
2018-05-23T19:23:10.308Z,3.20
2018-05-23T19:25:37.839Z,3.37
2018-05-23T19:28:05.370Z,3.45
2018-05-23T19:30:32.896Z,3.62
2018-05-23T19:33:01.189Z,3.70
2018-05-23T19:35:28.712Z,3.00
2018-05-23T19:37:56.240Z,3.10
2018-05-23T19:40:23.791Z,3.30
2018-05-23T19:42:51.313Z,3.22
2018-05-23T19:45:18.829Z,3.30
2018-05-23T19:47:46.353Z,3.33
2018-05-23T19:50:13.877Z,3.62
2018-05-23T19:52:41.493Z,3.58
2018-05-23T19:55:08.956Z,3.47
2018-05-23T19:57:36.476Z,3.80
2018-05-23T20:00:03.987Z,3.20
2018-05-23T20:02:31.500Z,3.45
2018-05-23T20:04:59.889Z,3.70
2018-05-23T20:07:27.404Z,3.10
2018-05-23T20:09:54.927Z,3.60
2018-05-23T20:12:22.451Z,3.25
2018-05-23T20:14:49.978Z,3.55
2018-05-23T20:17:17.497Z,3.17
2018-05-23T20:19:45.016Z,3.25
2018-05-23T20:22:12.534Z,3.37
2018-05-23T20:24:40.051Z,3.40
2018-05-23T20:27:07.586Z,3.72
2018-05-23T20:29:35.109Z,3.60
2018-05-23T20:32:02.636Z,3.75
2018-05-23T20:34:30.151Z,3.45
2018-05-23T20:36:57.667Z,3.35
2018-05-23T20:39:25.211Z,3.65
2018-05-23T20:41:52.721Z,3.72
2018-05-23T20:44:20.241Z,3.45
2018-05-23T20:46:47.763Z,3.22
2018-05-23T20:49:15.298Z,3.35
2018-05-23T20:51:42.811Z,3.65
2018-05-23T20:54:10.339Z,3.83
2018-05-23T20:56:37.865Z,3.80
2018-05-23T20:59:05.430Z,3.45
2018-05-23T21:01:32.947Z,3.50
2018-05-23T21:04:00.469Z,3.50
2018-05-23T21:06:27.988Z,3.10
2018-05-23T21:08:55.563Z,3.00
2018-05-23T21:11:23.075Z,3.70
2018-05-23T21:13:50.596Z,3.62
2018-05-23T21:16:18.125Z,3.03
2018-05-23T21:18:45.639Z,3.70
2018-05-23T21:21:13.169Z,3.35
2018-05-23T21:23:40.687Z,3.08
2018-05-23T21:26:08.204Z,3.40
2018-05-23T21:28:35.725Z,3.12
2018-05-23T21:31:03.248Z,3.70
2018-05-23T21:33:30.767Z,3.78
2018-05-23T21:35:58.300Z,3.40
2018-05-23T21:38:25.825Z,3.17
2018-05-23T23:05:51.991Z,2.35
2018-05-23T23:08:19.511Z,2.30
2018-05-23T23:10:47.027Z,2.30
2018-05-23T23:13:14.553Z,1.80
2018-05-23T23:15:42.839Z,2.05
2018-05-23T23:18:10.364Z,2.40
2018-05-23T23:20:37.884Z,1.98
2018-05-23T23:23:05.396Z,1.90
2018-05-23T23:25:32.922Z,2.10
2018-05-23T23:28:00.445Z,1.70
2018-05-23T23:30:27.963Z,1.80
2018-05-23T23:32:55.476Z,1.80
2018-05-23T23:35:22.995Z,2.00
2018-05-23T23:37:51.284Z,1.90
2018-05-23T23:40:18.927Z,1.77
2018-05-23T23:42:46.444Z,1.83
2018-05-23T23:45:13.963Z,1.83
2018-05-23T23:47:41.479Z,2.10
2018-05-23T23:50:09.014Z,1.42
2018-05-23T23:52:36.543Z,1.60
2018-05-23T23:55:04.056Z,1.62
2018-05-23T23:57:31.571Z,1.83
2018-05-23T23:59:59.860Z,1.95
